Time;durP1;ratioP1;P1;durP2;ratioP2;P2;SDS_P1;SDS_P2;PMS_P1;PMS_P2;Temp;Humidity;BMP_temperature;BMP_pressure;BME280_temperature;BME280_humidity;BME280_pressure;Samples;Min_cycle;Max_cycle;Signal;HPM_P1;HPM_P2
2022/03/03 00:00:08;;;;;;;31.58;19.50;;;;;;;-1.10;65.73;101500.78;5053177;28;20107;-23
2022/03/03 00:02:34;;;;;;;27.30;18.92;;;;;;;-1.13;65.92;101500.59;5050495;28;20047;-23
2022/03/03 00:04:59;;;;;;;26.80;19.13;;;;;;;-1.16;65.70;101501.34;5033960;28;20118;-23
2022/03/03 00:07:25;;;;;;;30.88;19.63;;;;;;;-1.19;65.92;101494.31;5055283;28;20027;-23
2022/03/03 00:09:51;;;;;;;29.48;19.08;;;;;;;-1.20;65.54;101492.50;5051977;28;20090;-23
2022/03/03 00:12:16;;;;;;;31.08;19.52;;;;;;;-1.22;65.55;101504.50;5047101;28;20029;-23
2022/03/03 00:14:41;;;;;;;29.75;19.33;;;;;;;-1.25;65.94;101501.75;5048098;28;20033;-23
2022/03/03 00:17:07;;;;;;;26.48;19.13;;;;;;;-1.26;65.88;101494.78;5046730;28;20037;-23
2022/03/03 00:19:33;;;;;;;28.52;20.08;;;;;;;-1.30;65.86;101477.31;5047443;28;20021;-23
2022/03/03 00:21:58;;;;;;;28.13;19.00;;;;;;;-1.32;65.66;101476.34;5048240;28;20036;-23
2022/03/03 00:24:24;;;;;;;30.15;19.40;;;;;;;-1.34;65.66;101475.34;5029734;28;20025;-23
2022/03/03 00:26:49;;;;;;;26.10;17.35;;;;;;;-1.35;65.86;101473.59;5047424;28;20025;-23
2022/03/03 00:29:14;;;;;;;29.98;21.23;;;;;;;-1.37;66.11;101470.03;5047381;28;20420;-23
2022/03/03 00:31:40;;;;;;;31.20;20.23;;;;;;;-1.39;65.96;101471.66;5049031;28;20037;-23
2022/03/03 00:34:05;;;;;;;31.00;20.38;;;;;;;-1.43;65.82;101461.13;5033904;28;20025;-22
2022/03/03 00:36:31;;;;;;;30.13;20.85;;;;;;;-1.44;66.15;101464.53;5051387;28;20028;-22
2022/03/03 00:38:56;;;;;;;31.05;20.23;;;;;;;-1.48;65.97;101462.59;5053488;28;20537;-23
2022/03/03 00:41:21;;;;;;;29.95;19.80;;;;;;;-1.49;66.03;101460.81;5050698;28;20024;-23
2022/03/03 00:43:47;;;;;;;31.05;20.17;;;;;;;-1.52;66.08;101465.84;5051976;28;20537;-23
2022/03/03 00:46:12;;;;;;;31.33;21.15;;;;;;;-1.55;65.94;101463.97;5051129;28;20475;-23
2022/03/03 00:48:38;;;;;;;29.65;19.00;;;;;;;-1.56;66.34;101458.72;5052089;28;20535;-23
2022/03/03 00:51:06;;;;;;;29.15;19.35;;;;;;;-1.58;65.89;101466.41;5051237;28;20075;-23
2022/03/03 00:53:36;;;;;;;30.42;20.42;;;;;;;-1.60;65.90;101461.94;5050901;28;20016;-24
2022/03/03 00:56:01;;;;;;;30.67;20.65;;;;;;;-1.62;66.29;101458.38;5049185;28;20035;-23
2022/03/03 00:58:26;;;;;;;31.58;20.27;;;;;;;-1.63;66.02;101461.78;5050865;28;20108;-22
2022/03/03 01:00:52;;;;;;;33.42;20.98;;;;;;;-1.66;65.95;101456.44;5053794;28;20096;-24
2022/03/03 01:03:17;;;;;;;31.75;19.08;;;;;;;-1.67;66.33;101458.13;5057378;28;20596;-23
2022/03/03 01:05:43;;;;;;;31.50;20.58;;;;;;;-1.72;66.19;101447.56;5056937;28;20028;-24
2022/03/03 01:08:10;;;;;;;29.65;20.27;;;;;;;-1.73;65.96;101450.91;5056001;28;20033;-24
2022/03/03 01:10:36;;;;;;;31.00;20.13;;;;;;;-1.73;65.94;101456.09;5058163;28;20017;-23
2022/03/03 01:13:02;;;;;;;35.65;20.90;;;;;;;-1.77;65.95;101443.81;5053245;28;20020;-23
2022/03/03 01:15:27;;;;;;;31.15;19.88;;;;;;;-1.79;66.26;101442.84;5049592;28;20032;-23
2022/03/03 01:17:52;;;;;;;40.45;21.25;;;;;;;-1.80;66.46;101446.25;5048231;28;20379;-24
2022/03/03 01:20:18;;;;;;;36.83;21.27;;;;;;;-1.82;66.51;101445.25;5049688;28;20104;-22
2022/03/03 01:22:43;;;;;;;33.30;19.63;;;;;;;-1.85;66.36;101434.75;5050243;28;20061;-23
2022/03/03 01:25:08;;;;;;;34.25;20.85;;;;;;;-1.87;66.12;101428.63;5050313;28;20112;-23
2022/03/03 01:27:34;;;;;;;33.15;20.40;;;;;;;-1.91;66.08;101431.84;5051049;28;20048;-23
2022/03/03 01:30:01;;;;;;;30.55;21.05;;;;;;;-1.91;66.19;101431.84;5051560;28;20021;-23
2022/03/03 01:32:26;;;;;;;34.97;20.98;;;;;;;-1.94;66.29;101432.53;5050526;28;20028;-23
2022/03/03 01:34:51;;;;;;;29.02;20.45;;;;;;;-1.97;66.23;101425.53;5032492;28;20036;-23
2022/03/03 01:37:17;;;;;;;27.75;19.35;;;;;;;-1.99;65.97;101427.16;5050233;28;20021;-23
2022/03/03 01:39:42;;;;;;;27.45;18.30;;;;;;;-2.00;66.48;101435.69;5048557;28;20075;-23
2022/03/03 01:42:08;;;;;;;30.33;19.27;;;;;;;-2.06;66.39;101425.03;5050762;28;20025;-23
2022/03/03 01:44:33;;;;;;;28.33;18.73;;;;;;;-2.06;66.10;101422.44;5031044;28;20025;-24
2022/03/03 01:47:00;;;;;;;29.88;20.10;;;;;;;-2.07;66.62;101418.06;5029467;28;20051;-22
2022/03/03 01:49:26;;;;;;;30.77;19.58;;;;;;;-2.09;66.31;101427.44;5050164;28;20053;-23
2022/03/03 01:51:52;;;;;;;27.77;19.10;;;;;;;-2.12;65.78;101428.16;5050374;28;20382;-22
2022/03/03 01:54:17;;;;;;;29.42;19.95;;;;;;;-2.13;65.94;101431.53;5050301;28;20132;-22
2022/03/03 01:56:44;;;;;;;31.52;21.63;;;;;;;-2.15;66.50;101424.50;5049547;28;20361;-23
2022/03/03 01:59:10;;;;;;;30.98;19.65;;;;;;;-2.17;66.37;101428.72;5049013;28;20021;-23
2022/03/03 02:01:36;;;;;;;30.10;20.65;;;;;;;-2.19;66.31;101419.16;5031564;28;20039;-23
2022/03/03 02:04:05;;;;;;;28.77;20.40;;;;;;;-2.21;66.33;101415.63;5052732;28;20119;-23
2022/03/03 02:06:30;;;;;;;31.38;18.83;;;;;;;-2.23;66.10;101411.19;5048019;28;20025;-22
2022/03/03 02:08:56;;;;;;;27.60;18.95;;;;;;;-2.26;66.38;101406.75;5046909;28;20028;-22
2022/03/03 02:11:21;;;;;;;28.40;19.55;;;;;;;-2.28;66.59;101402.25;5049884;28;20111;-23
2022/03/03 02:13:47;;;;;;;28.42;19.80;;;;;;;-2.29;66.62;101396.22;5015338;28;20116;-23
2022/03/03 02:16:12;;;;;;;30.17;18.85;;;;;;;-2.30;66.47;101409.97;5033525;28;20055;-23
2022/03/03 02:18:41;;;;;;;28.95;19.05;;;;;;;-2.33;66.57;101389.13;5049989;28;20513;-23
2022/03/03 02:21:10;;;;;;;28.25;18.60;;;;;;;-2.34;66.80;101402.81;5050414;28;20036;-22
2022/03/03 02:23:36;;;;;;;26.15;17.98;;;;;;;-2.35;66.58;101401.03;5048648;28;20020;-22
2022/03/03 02:26:02;;;;;;;30.48;19.38;;;;;;;-2.37;66.64;101394.91;5032808;28;20677;-23
2022/03/03 02:28:27;;;;;;;30.20;20.70;;;;;;;-2.40;66.80;101387.00;5030984;28;20444;-22
2022/03/03 02:30:53;;;;;;;29.40;20.65;;;;;;;-2.41;66.37;101385.22;5051063;28;20032;-23
2022/03/03 02:33:18;;;;;;;29.55;18.98;;;;;;;-2.42;66.76;101386.91;5047222;28;20691;-23
2022/03/03 02:35:44;;;;;;;34.28;18.60;;;;;;;-2.46;66.46;101388.41;5049968;28;20094;-22
2022/03/03 02:38:09;;;;;;;26.77;19.33;;;;;;;-2.47;66.56;101386.63;5051337;28;20024;-22
2022/03/03 02:40:35;;;;;;;29.00;18.20;;;;;;;-2.48;66.34;101384.88;5048606;28;20025;-22
2022/03/03 02:43:00;;;;;;;29.67;19.15;;;;;;;-2.50;66.76;101381.28;5046736;28;20744;-22
2022/03/03 02:45:25;;;;;;;30.48;19.30;;;;;;;-2.53;66.68;101368.22;5049051;28;20029;-22
2022/03/03 02:47:51;;;;;;;28.80;18.23;;;;;;;-2.54;66.35;101361.25;5045762;28;20458;-22
2022/03/03 02:50:20;;;;;;;26.35;18.15;;;;;;;-2.55;66.70;101372.41;5047646;28;20037;-23
2022/03/03 02:52:45;;;;;;;28.58;18.63;;;;;;;-2.60;66.73;101368.69;5048011;28;20032;-22
2022/03/03 02:55:12;;;;;;;29.25;19.73;;;;;;;-2.60;66.48;101369.56;5032285;28;20036;-23
2022/03/03 02:57:56;;;;;;;28.63;18.80;;;;;;;-2.61;66.41;101361.72;5046888;28;20177;-22
2022/03/03 03:00:34;;;;;;;27.13;18.75;;;;;;;-2.63;66.20;101364.22;5048604;28;20025;-22
2022/03/03 03:03:00;;;;;;;24.92;17.35;;;;;;;-2.65;66.70;101370.09;5049168;28;20025;-22
2022/03/03 03:05:25;;;;;;;25.15;18.30;;;;;;;-2.66;66.18;101373.50;5049427;28;20027;-22
2022/03/03 03:07:51;;;;;;;26.27;18.52;;;;;;;-2.68;66.51;101367.34;5032390;28;20031;-22
2022/03/03 03:10:16;;;;;;;27.35;18.42;;;;;;;-2.69;66.52;101363.88;5049545;28;20039;-22
2022/03/03 03:12:41;;;;;;;31.13;19.27;;;;;;;-2.72;66.21;101362.03;5052298;28;20040;-22
2022/03/03 03:15:07;;;;;;;26.98;16.88;;;;;;;-2.74;66.51;101353.28;5050009;28;20035;-22
2022/03/03 03:17:33;;;;;;;26.52;17.83;;;;;;;-2.75;66.73;101354.09;5055911;28;20507;-22
2022/03/03 03:19:58;;;;;;;29.15;18.17;;;;;;;-2.77;66.65;101366.03;5057457;28;20023;-22
2022/03/03 03:22:23;;;;;;;28.48;18.00;;;;;;;-2.78;66.44;101348.75;5053931;28;20024;-23
2022/03/03 03:24:49;;;;;;;28.30;17.65;;;;;;;-2.84;66.41;101341.56;5048945;28;20025;-23
2022/03/03 03:27:14;;;;;;;30.80;18.92;;;;;;;-2.82;66.72;101344.22;5047067;28;20021;-23
2022/03/03 03:29:39;;;;;;;28.95;18.67;;;;;;;-2.83;66.65;101345.03;5047198;28;20040;-22
2022/03/03 03:32:05;;;;;;;28.50;18.60;;;;;;;-2.85;66.52;101336.31;5047237;28;20032;-23
2022/03/03 03:34:30;;;;;;;25.90;17.30;;;;;;;-2.88;66.35;101337.03;5047195;28;20039;-22
2022/03/03 03:36:56;;;;;;;28.52;19.02;;;;;;;-2.89;66.48;101340.41;5048154;28;20023;-22
2022/03/03 03:39:21;;;;;;;28.80;18.85;;;;;;;-2.90;66.83;101342.91;5048777;28;20043;-22
2022/03/03 03:41:47;;;;;;;27.95;19.05;;;;;;;-2.91;66.27;101346.28;5045901;28;20099;-23
2022/03/03 03:44:13;;;;;;;26.98;18.60;;;;;;;-2.94;66.37;101344.41;5044118;28;20020;-23
2022/03/03 03:46:38;;;;;;;28.27;18.30;;;;;;;-2.95;66.74;101345.22;5047967;28;20040;-23
2022/03/03 03:49:05;;;;;;;29.08;18.25;;;;;;;-2.97;67.00;101336.47;5030738;28;20029;-23
2022/03/03 03:51:31;;;;;;;28.60;18.52;;;;;;;-3.00;66.93;101347.53;5047657;28;20418;-23
2022/03/03 03:53:56;;;;;;;25.92;17.35;;;;;;;-3.00;66.86;101337.22;5048738;28;20044;-23
2022/03/03 03:56:22;;;;;;;28.25;19.67;;;;;;;-3.03;66.62;101344.78;5030315;28;20029;-22
2022/03/03 03:58:47;;;;;;;24.83;17.35;;;;;;;-3.04;66.61;101345.56;5042158;28;20032;-23
2022/03/03 04:01:12;;;;;;;25.60;16.80;;;;;;;-3.05;66.62;101343.81;5047136;28;20056;-22
2022/03/03 04:03:38;;;;;;;28.73;19.35;;;;;;;-3.08;66.72;101338.47;5044379;28;20028;-22
2022/03/03 04:06:05;;;;;;;25.67;17.55;;;;;;;-3.08;66.76;101338.47;5047287;28;20063;-22
2022/03/03 04:08:31;;;;;;;25.08;17.48;;;;;;;-3.09;66.39;101341.84;5011273;28;20036;-23
2022/03/03 04:10:56;;;;;;;25.38;17.00;;;;;;;-3.11;66.34;101346.03;5049098;28;20025;-22
2022/03/03 04:13:21;;;;;;;30.05;19.45;;;;;;;-3.13;66.38;101342.47;5042134;28;20504;-22
2022/03/03 04:15:47;;;;;;;28.35;19.08;;;;;;;-3.15;66.55;101351.81;5046886;28;20040;-22
2022/03/03 04:18:12;;;;;;;25.40;16.67;;;;;;;-3.18;66.47;101342.22;5048059;28;20647;-23
2022/03/03 04:20:38;;;;;;;28.95;17.95;;;;;;;-3.20;66.50;101349.00;5047534;28;20037;-23
2022/03/03 04:23:04;;;;;;;25.00;16.70;;;;;;;-3.20;66.60;101350.66;5046612;28;20039;-23
2022/03/03 04:25:29;;;;;;;27.52;18.42;;;;;;;-3.22;66.28;101345.41;5047225;28;20486;-23
2022/03/03 04:27:54;;;;;;;30.08;18.17;;;;;;;-3.25;66.50;101346.13;5046182;28;20099;-22
2022/03/03 04:30:20;;;;;;;29.75;17.88;;;;;;;-3.25;66.54;101351.28;5045038;28;20510;-22
2022/03/03 04:32:45;;;;;;;27.00;16.67;;;;;;;-3.27;66.35;101352.00;5029611;28;20033;-22
2022/03/03 04:35:10;;;;;;;28.23;18.27;;;;;;;-3.28;66.56;101348.53;5049040;28;20493;-23
2022/03/03 04:37:37;;;;;;;26.20;17.48;;;;;;;-3.31;66.57;101343.19;5024350;28;20021;-23
2022/03/03 04:40:04;;;;;;;27.08;18.10;;;;;;;-3.32;66.47;101344.00;5048250;28;20079;-23
2022/03/03 04:42:29;;;;;;;26.77;17.83;;;;;;;-3.34;66.52;101340.41;5027572;28;20017;-23
2022/03/03 04:44:54;;;;;;;27.25;18.00;;;;;;;-3.35;66.82;101341.22;5046444;28;20412;-23
2022/03/03 04:47:20;;;;;;;24.95;18.13;;;;;;;-3.36;66.29;101349.78;5044770;28;20029;-23
2022/03/03 04:49:45;;;;;;;25.30;17.42;;;;;;;-3.38;66.49;101343.63;5045539;28;20090;-23
2022/03/03 04:52:11;;;;;;;27.02;17.58;;;;;;;-3.39;66.27;101336.69;5046157;28;20043;-22
2022/03/03 04:54:36;;;;;;;27.83;18.35;;;;;;;-3.42;66.54;101340.00;5046368;28;20057;-22
2022/03/03 04:57:02;;;;;;;25.58;17.02;;;;;;;-3.42;66.56;101331.34;5048977;28;20506;-22
2022/03/03 04:59:27;;;;;;;26.48;16.42;;;;;;;-3.44;66.64;101338.13;5046706;28;20104;-23
2022/03/03 05:01:52;;;;;;;26.00;16.98;;;;;;;-3.46;66.48;101345.75;5029591;28;20475;-23
2022/03/03 05:04:18;;;;;;;24.15;16.52;;;;;;;-3.48;66.62;101345.66;5046321;28;20067;-23
2022/03/03 05:06:45;;;;;;;26.15;17.45;;;;;;;-3.50;66.54;101339.53;5047347;28;20032;-23
2022/03/03 05:09:10;;;;;;;26.88;16.90;;;;;;;-3.51;66.59;101335.16;5045409;28;20442;-23
2022/03/03 05:11:35;;;;;;;28.33;17.40;;;;;;;-3.53;66.90;101339.34;5049843;28;20061;-22
2022/03/03 05:14:01;;;;;;;27.15;17.33;;;;;;;-3.54;66.70;101336.69;5028607;28;20382;-22
2022/03/03 05:16:26;;;;;;;26.13;17.60;;;;;;;-3.55;66.89;101335.78;5048189;28;20025;-23
2022/03/03 05:18:52;;;;;;;26.27;17.17;;;;;;;-3.57;66.76;101337.38;5045865;28;20060;-22
2022/03/03 05:21:17;;;;;;;31.33;18.35;;;;;;;-3.59;66.99;101326.09;5051118;28;20079;-23
2022/03/03 05:23:43;;;;;;;26.60;17.33;;;;;;;-3.59;66.58;101320.03;5048249;28;20471;-22
2022/03/03 05:26:08;;;;;;;27.20;17.75;;;;;;;-3.62;66.84;101323.31;5032693;28;20056;-22
2022/03/03 05:28:33;;;;;;;27.42;18.15;;;;;;;-3.63;66.80;101321.56;5036389;28;20107;-22
2022/03/03 05:30:59;;;;;;;26.85;18.00;;;;;;;-3.65;66.66;101330.88;5049336;28;20056;-22
2022/03/03 05:33:25;;;;;;;24.60;16.48;;;;;;;-3.65;66.75;101324.03;5050673;28;20407;-22
2022/03/03 05:36:00;;;;;;;22.67;16.52;;;;;;;-3.67;66.76;101320.47;5049159;28;20499;-23
2022/03/03 05:38:29;;;;;;;25.60;17.90;;;;;;;-3.69;66.75;101316.03;5047965;28;20071;-23
2022/03/03 05:40:54;;;;;;;27.80;17.35;;;;;;;-3.70;66.78;101328.00;5050467;28;20123;-23
2022/03/03 05:43:20;;;;;;;27.33;17.30;;;;;;;-3.71;66.75;101325.38;5051287;28;20527;-22
2022/03/03 05:45:47;;;;;;;27.38;17.45;;;;;;;-3.71;66.93;101317.63;5050484;28;20678;-23
2022/03/03 05:48:16;;;;;;;28.67;18.25;;;;;;;-3.74;66.74;101319.22;5033678;28;20060;-22
2022/03/03 05:50:41;;;;;;;25.42;17.23;;;;;;;-3.74;66.93;101328.63;5051482;28;20634;-23
2022/03/03 05:53:06;;;;;;;27.23;17.08;;;;;;;-3.76;67.07;101325.97;5051719;28;20033;-22
2022/03/03 05:55:32;;;;;;;28.50;17.92;;;;;;;-3.76;66.86;101336.28;5050430;28;20056;-22
2022/03/03 05:57:59;;;;;;;24.05;16.75;;;;;;;-3.78;66.78;101332.72;5034457;28;20048;-22
2022/03/03 06:00:26;;;;;;;25.52;17.35;;;;;;;-3.79;66.67;101333.53;5049564;28;20112;-23
2022/03/03 06:02:53;;;;;;;26.40;17.67;;;;;;;-3.80;66.88;101333.44;5030424;28;20032;-23
2022/03/03 06:05:26;;;;;;;26.20;17.52;;;;;;;-3.81;66.63;101329.97;5049299;28;20360;-23
2022/03/03 06:08:03;;;;;;;27.23;17.83;;;;;;;-3.82;66.62;101329.88;5050005;28;20032;-23
2022/03/03 06:10:32;;;;;;;29.45;17.60;;;;;;;-3.83;66.82;101329.00;5045256;28;20554;-23
2022/03/03 06:13:06;;;;;;;25.75;17.10;;;;;;;-3.84;66.87;101332.34;5048254;28;20037;-23
2022/03/03 06:15:33;;;;;;;22.80;15.90;;;;;;;-3.84;66.65;101328.91;5031644;28;20033;-23
2022/03/03 06:17:59;;;;;;;27.83;17.20;;;;;;;-3.85;66.85;101330.56;5033272;28;20037;-22
2022/03/03 06:20:25;;;;;;;25.38;17.80;;;;;;;-3.85;66.84;101328.00;5032611;28;20502;-22
2022/03/03 06:22:50;;;;;;;25.38;17.27;;;;;;;-3.87;66.87;101332.19;5049090;28;20032;-23
2022/03/03 06:25:15;;;;;;;28.60;18.10;;;;;;;-3.86;67.22;101334.81;5049459;28;20874;-22
2022/03/03 06:27:41;;;;;;;25.80;17.90;;;;;;;-3.87;66.93;101332.19;5049870;28;20037;-23
2022/03/03 06:30:07;;;;;;;27.35;17.38;;;;;;;-3.88;66.76;101331.28;5050523;28;20028;-23
2022/03/03 06:32:33;;;;;;;25.95;16.92;;;;;;;-3.88;67.01;101336.44;5033355;28;20023;-23
2022/03/03 06:34:58;;;;;;;25.85;17.92;;;;;;;-3.87;67.03;101345.06;5052031;28;20029;-23
2022/03/03 06:37:23;;;;;;;24.55;16.65;;;;;;;-3.88;67.04;101335.53;5032865;28;20028;-23
2022/03/03 06:39:49;;;;;;;25.90;17.50;;;;;;;-3.89;67.23;101339.81;5050805;28;20490;-23
2022/03/03 06:42:14;;;;;;;27.98;17.92;;;;;;;-3.88;67.14;101338.13;5050256;28;20471;-22
2022/03/03 06:44:40;;;;;;;22.55;16.75;;;;;;;-3.88;67.37;101346.75;5050102;28;20032;-22
2022/03/03 06:47:05;;;;;;;26.35;18.25;;;;;;;-3.87;67.10;101337.34;5030818;28;20447;-23
2022/03/03 06:49:30;;;;;;;25.25;16.98;;;;;;;-3.85;67.34;101333.16;5050107;28;20021;-23
2022/03/03 06:51:57;;;;;;;29.63;18.70;;;;;;;-3.86;67.50;101339.13;5050128;28;20020;-22
2022/03/03 06:54:24;;;;;;;25.25;17.02;;;;;;;-3.84;67.52;101347.81;5051161;28;20021;-22
2022/03/03 06:56:57;;;;;;;26.23;17.50;;;;;;;-3.84;67.29;101340.09;5053642;28;20473;-23
2022/03/03 06:59:26;;;;;;;28.48;18.10;;;;;;;-3.83;67.02;101336.72;5048774;28;20017;-23
2022/03/03 07:01:52;;;;;;;32.30;18.17;;;;;;;-3.80;67.52;101348.91;5050714;28;20029;-23
2022/03/03 07:04:19;;;;;;;27.88;18.42;;;;;;;-3.80;67.33;101347.19;5050347;28;20070;-23
2022/03/03 07:06:45;;;;;;;27.92;18.17;;;;;;;-3.79;67.42;101351.59;5051172;28;20024;-23
2022/03/03 07:09:11;;;;;;;31.23;18.15;;;;;;;-3.78;67.52;101348.19;5048515;28;20546;-23
2022/03/03 07:11:42;;;;;;;30.83;17.85;;;;;;;-3.78;67.54;101337.88;5050230;28;20093;-23
2022/03/03 07:14:08;;;;;;;30.95;18.50;;;;;;;-3.76;67.98;101336.28;5050206;28;20028;-23
2022/03/03 07:16:53;;;;;;;26.27;17.52;;;;;;;-3.75;68.11;101343.22;5048650;28;20025;-23
2022/03/03 07:19:39;;;;;;;27.40;17.95;;;;;;;-3.74;67.87;101334.69;5051359;28;20647;-23
2022/03/03 07:22:19;;;;;;;25.55;16.75;;;;;;;-3.70;68.03;101322.00;5035440;28;20064;-23
2022/03/03 07:24:58;;;;;;;27.40;18.83;;;;;;;-3.69;68.10;101329.81;5057367;28;20025;-23
2022/03/03 07:27:24;;;;;;;25.88;18.15;;;;;;;-3.66;68.04;101336.84;5055911;28;20040;-23
2022/03/03 07:29:58;;;;;;;29.55;18.45;;;;;;;-3.64;68.16;101330.06;5056509;28;20025;-23
2022/03/03 07:32:34;;;;;;;25.75;17.10;;;;;;;-3.62;68.14;101339.69;5054561;28;20029;-23
2022/03/03 07:35:03;;;;;;;24.98;17.50;;;;;;;-3.59;68.21;101333.84;5048904;28;20021;-23
2022/03/03 07:38:02;;;;;;;30.38;18.73;;;;;;;-3.56;68.29;101333.13;5045676;28;20382;-22
2022/03/03 07:40:29;;;;;;;30.92;19.23;;;;;;;-3.52;68.75;101330.81;5044095;28;20033;-23
2022/03/03 07:42:55;;;;;;;27.30;19.00;;;;;;;-3.50;68.45;101324.03;5048848;28;20024;-23
2022/03/03 07:45:21;;;;;;;33.72;20.10;;;;;;;-3.43;68.84;101329.56;5050353;28;20086;-23
2022/03/03 07:47:51;;;;;;;31.67;19.25;;;;;;;-3.40;69.07;101329.75;5049543;28;20119;-22
2022/03/03 07:50:16;;;;;;;28.73;18.08;;;;;;;-3.35;68.63;101330.91;5047498;28;20721;-23
2022/03/03 07:52:45;;;;;;;29.85;18.58;;;;;;;-3.30;68.83;101326.03;5048581;28;20025;-23
2022/03/03 07:55:10;;;;;;;27.92;19.15;;;;;;;-3.25;68.79;101329.75;5050572;28;20510;-23
2022/03/03 07:57:41;;;;;;;28.75;19.88;;;;;;;-3.18;68.91;101331.88;5049126;28;20037;-23
2022/03/03 08:00:09;;;;;;;30.38;20.35;;;;;;;-3.09;69.62;101326.38;5027625;28;20016;-22
2022/03/03 08:02:35;;;;;;;34.53;20.15;;;;;;;-3.01;69.83;101321.63;5048193;28;20033;-23
2022/03/03 08:05:05;;;;;;;28.90;18.38;;;;;;;-2.96;69.52;101326.25;5049238;28;20034;-22
2022/03/03 08:07:43;;;;;;;31.75;19.98;;;;;;;-2.89;69.31;101324.03;5047588;28;20052;-22
2022/03/03 08:10:09;;;;;;;30.25;19.10;;;;;;;-2.81;69.21;101333.09;5049753;28;20025;-23
2022/03/03 08:12:35;;;;;;;30.85;19.08;;;;;;;-2.75;69.33;101328.28;5049518;28;20254;-23
2022/03/03 08:15:01;;;;;;;29.80;18.58;;;;;;;-2.68;69.55;101331.19;5032765;28;20103;-23
2022/03/03 08:17:26;;;;;;;31.17;19.20;;;;;;;-2.61;69.30;101330.72;5049000;28;20487;-23
2022/03/03 08:19:53;;;;;;;28.42;19.08;;;;;;;-2.56;69.09;101329.31;5046292;28;20034;-22
2022/03/03 08:22:18;;;;;;;30.38;20.00;;;;;;;-2.49;69.46;101325.34;5049706;28;20040;-23
2022/03/03 08:24:44;;;;;;;31.95;20.60;;;;;;;-2.40;68.83;101328.44;5045633;28;20429;-22
2022/03/03 08:27:12;;;;;;;29.63;19.67;;;;;;;-2.31;69.50;101325.47;5033481;28;20021;-23
2022/03/03 08:29:38;;;;;;;34.80;20.20;;;;;;;-2.20;69.74;101323.47;5046947;28;20021;-22
2022/03/03 08:32:09;;;;;;;40.03;19.67;;;;;;;-2.09;69.89;101335.28;5026787;28;20025;-22
2022/03/03 08:35:01;;;;;;;32.90;21.13;;;;;;;-2.01;69.81;101329.59;5028155;28;20104;-22
2022/03/03 08:37:35;;;;;;;35.47;20.67;;;;;;;-1.87;69.87;101331.22;5048126;28;20100;-23
2022/03/03 08:40:01;;;;;;;34.35;21.63;;;;;;;-1.75;70.45;101318.06;5027202;28;20013;-22
2022/03/03 08:42:30;;;;;;;37.28;22.70;;;;;;;-1.65;70.86;101324.59;5049094;28;20143;-23
2022/03/03 08:45:02;;;;;;;31.67;20.50;;;;;;;-1.53;71.00;101323.44;5049040;28;20033;-23
2022/03/03 08:47:29;;;;;;;43.22;22.63;;;;;;;-1.44;70.32;101318.72;5048427;28;20025;-22
2022/03/03 08:49:58;;;;;;;34.67;21.63;;;;;;;-1.34;70.49;101326.13;5047235;28;20021;-23
2022/03/03 08:52:23;;;;;;;35.28;22.70;;;;;;;-1.24;70.05;101318.84;5047890;28;20070;-22
2022/03/03 08:54:49;;;;;;;35.80;22.15;;;;;;;-1.13;70.21;101324.56;5052163;28;20449;-22
2022/03/03 08:57:14;;;;;;;35.92;22.55;;;;;;;-1.01;69.50;101326.88;5050850;28;20435;-22
2022/03/03 08:59:39;;;;;;;33.97;21.50;;;;;;;-0.94;69.85;101328.91;5053183;28;20078;-23
2022/03/03 09:02:05;;;;;;;34.72;23.08;;;;;;;-0.84;69.63;101322.50;5050956;28;20467;-26
2022/03/03 09:04:30;;;;;;;34.53;23.52;;;;;;;-0.74;69.43;101327.28;5052712;28;20334;-25
2022/03/03 09:06:56;;;;;;;34.08;22.85;;;;;;;-0.62;69.47;101328.69;5052508;28;20025;-25
2022/03/03 09:09:21;;;;;;;35.60;21.80;;;;;;;-0.51;68.66;101332.69;5054115;28;20017;-25
2022/03/03 09:11:47;;;;;;;31.85;21.65;;;;;;;-0.43;68.24;101333.91;5052625;28;20021;-25
2022/03/03 09:14:12;;;;;;;32.55;21.45;;;;;;;-0.33;67.60;101324.00;5053194;28;20524;-25
2022/03/03 09:16:38;;;;;;;32.78;22.38;;;;;;;-0.24;67.80;101324.41;5053899;28;20025;-25
2022/03/03 09:19:03;;;;;;;32.13;21.75;;;;;;;-0.15;67.56;101317.06;5054011;28;20361;-25
2022/03/03 09:21:29;;;;;;;31.58;21.40;;;;;;;-0.05;67.87;101317.47;5048681;28;20120;-25
2022/03/03 09:23:54;;;;;;;34.42;21.80;;;;;;;0.05;67.51;101324.84;5055890;28;20129;-25
2022/03/03 09:26:20;;;;;;;32.20;21.15;;;;;;;0.16;67.13;101327.03;5052670;28;20025;-25
2022/03/03 09:28:45;;;;;;;30.98;21.77;;;;;;;0.28;67.42;101321.47;5031823;28;20125;-25
2022/03/03 09:31:11;;;;;;;29.88;20.20;;;;;;;0.40;67.22;101310.75;5051331;28;20036;-24
2022/03/03 09:33:36;;;;;;;28.65;20.42;;;;;;;0.50;67.05;101324.19;5050461;28;20021;-24
2022/03/03 09:36:02;;;;;;;31.13;22.02;;;;;;;0.60;67.34;101319.41;5052128;28;20675;-25
2022/03/03 09:38:28;;;;;;;32.97;20.42;;;;;;;0.71;67.29;101323.34;5049186;28;20045;-24
2022/03/03 09:40:53;;;;;;;30.42;20.98;;;;;;;0.82;67.01;101321.19;5050193;28;20017;-25
2022/03/03 09:43:19;;;;;;;30.05;20.90;;;;;;;0.93;66.74;101318.13;5049837;28;20021;-25
2022/03/03 09:45:44;;;;;;;31.92;21.58;;;;;;;1.09;66.71;101314.44;5054975;28;20025;-25
2022/03/03 09:48:10;;;;;;;33.25;22.75;;;;;;;1.19;66.41;101313.09;5050467;28;21336;-25
2022/03/03 09:50:37;;;;;;;36.28;23.42;;;;;;;1.32;66.75;101312.75;5053335;28;20020;-25
2022/03/03 09:53:15;;;;;;;32.85;22.70;;;;;;;1.45;66.22;101318.44;5059920;28;20024;-25
2022/03/03 09:55:42;;;;;;;35.10;22.58;;;;;;;1.55;66.48;101315.38;5064600;28;20028;-24
2022/03/03 09:58:08;;;;;;;36.67;25.13;;;;;;;1.66;66.48;101307.97;5064024;28;20020;-25
2022/03/03 10:00:37;;;;;;;34.28;24.77;;;;;;;1.80;66.14;101316.28;5056699;28;20108;-25
2022/03/03 10:03:09;;;;;;;33.90;25.25;;;;;;;1.92;66.09;101306.34;5052286;28;20086;-25
2022/03/03 10:05:51;;;;;;;35.80;25.75;;;;;;;2.05;65.90;101322.41;5050965;28;20021;-24
2022/03/03 10:08:27;;;;;;;36.42;23.17;;;;;;;2.14;65.69;101306.25;5035583;28;20025;-24
2022/03/03 10:10:55;;;;;;;31.40;23.85;;;;;;;2.26;65.39;101308.38;5051206;28;20049;-24
2022/03/03 10:13:21;;;;;;;37.92;25.73;;;;;;;2.38;65.19;101300.13;5050095;28;20017;-24
2022/03/03 10:15:59;;;;;;;37.08;24.33;;;;;;;2.50;64.77;101308.34;5051153;28;20475;-24
2022/03/03 10:18:25;;;;;;;33.85;24.02;;;;;;;2.60;64.75;101299.13;5050013;28;20025;-24
2022/03/03 10:20:59;;;;;;;36.83;24.27;;;;;;;2.72;64.66;101308.19;5051137;28;20425;-24
2022/03/03 10:23:33;;;;;;;36.55;23.27;;;;;;;2.86;64.24;101304.34;5045881;28;20063;-24
2022/03/03 10:26:00;;;;;;;35.30;23.58;;;;;;;2.94;64.15;101308.06;5050810;28;20391;-24
2022/03/03 10:28:28;;;;;;;36.72;23.23;;;;;;;3.06;64.08;101306.69;5051732;28;20426;-24
2022/03/03 10:31:09;;;;;;;33.20;24.25;;;;;;;3.16;64.20;101303.56;5051072;28;20184;-23
2022/03/03 10:33:40;;;;;;;31.75;22.15;;;;;;;3.27;63.92;101310.84;5049679;28;20032;-24
2022/03/03 10:36:26;;;;;;;33.13;23.57;;;;;;;3.38;64.04;101308.56;5044766;28;20021;-24
2022/03/03 10:38:55;;;;;;;33.65;22.73;;;;;;;3.49;63.69;101306.25;5051549;28;20334;-24
2022/03/03 10:41:43;;;;;;;32.85;22.90;;;;;;;3.63;63.42;101299.75;5049682;28;20024;-24
2022/03/03 10:44:17;;;;;;;33.42;23.33;;;;;;;3.75;63.76;101299.22;5030476;28;20060;-24
2022/03/03 10:47:08;;;;;;;29.73;21.83;;;;;;;3.89;63.59;101296.13;5048753;28;20029;-23
2022/03/03 10:49:36;;;;;;;35.17;22.27;;;;;;;4.03;63.28;101289.56;5033033;28;20029;-24
2022/03/03 10:52:11;;;;;;;35.85;23.20;;;;;;;4.08;63.11;101294.91;5048947;28;20390;-24
2022/03/03 10:54:51;;;;;;;33.67;22.80;;;;;;;4.16;62.90;101290.78;5049288;28;20036;-24
2022/03/03 10:57:45;;;;;;;28.27;20.52;;;;;;;4.27;63.13;101298.03;5049905;28;20036;-24
2022/03/03 11:00:15;;;;;;;30.25;22.40;;;;;;;4.35;62.79;101296.50;5047077;28;20399;-24
2022/03/03 11:02:48;;;;;;;32.13;23.05;;;;;;;4.46;63.14;101289.84;5047972;28;20047;-24
2022/03/03 11:05:15;;;;;;;30.08;21.55;;;;;;;4.56;62.41;101282.22;5049025;28;20031;-24
2022/03/03 11:07:42;;;;;;;29.05;21.10;;;;;;;4.65;62.92;101279.88;5048673;28;20028;-22
2022/03/03 11:10:09;;;;;;;29.88;22.00;;;;;;;4.69;62.78;101278.19;5048811;28;20063;-24